Relevés horaires Melle (Belgique)


Relevés horaires à Melle - Lundi 23 Nov. 2015
Heure UTC1 Température [°C] Vent [km/h] Hum. [%] Pres.4 [hPa] Visi. [Km] Nébu. [octa] Préc.5 [mm] Cond.
2m. Res. Ros. Dir.2 Vit. Moy. Raf.3
23:00 1.9 -0.9 0.6 SSO 9.3 9.3 13.0 91 1024.9(-0.8/3h) -- -- -- --
22:00 1.6 -0.7 0.3 SSO 7.4 7.4 11.1 91 1025.4(-0.3/3h) -- -- -- --
21:00 2.2 0 0.7 SSO 7.4 7.4 11.1 90 1025.6(-0.1/3h) -- -- -- --
20:00 2.7 0.6 0.9 S 7.4 7.4 9.3 88 1025.7(0.0/3h) -- -- -- --
19:00 3.6 1.7 1.5 SSO 7.4 7.4 11.1 86 1025.7(0.0/3h) -- -- -- --
18:00 3.6 2.3 1.5 SSO 5.6 7.4 11.1 86 1025.7(0.0/3h) -- -- 0.3/12h
--
17:00 3.9 2.6 1.7 SSO 5.6 5.6 9.3 86 1025.7(0.0/3h) -- -- -- --
16:00 4.2 2.9 1.3 SSO 5.6 5.6 9.3 81 1025.7(-0.1/3h) -- -- -- --
15:00 6.0 5 1.1 SO 5.6 7.4 11.1 71 1025.7(0.2/3h) -- -- -- --
14:00 6.7 5.3 1.1 SO 7.4 7.4 11.1 67 1025.7(-0.2/3h) -- -- -- --
13:00 6.9 6 1.8 SO 5.6 5.6 7.4 70 1025.8(-0.3/3h) -- -- -- --
12:00 6.8 6.8 3.7 O 3.7 3.7 5.6 81 1025.5(0.0/3h) -- -- 0.3/6h
--
11:00 5.1 5.1 4.0 OSO 3.7 3.7 5.6 93 1025.9(1.1/3h) -- -- -- --
10:00 2.5 2.5 1.7 OSO 3.7 3.7 5.6 94 1026.1(2.1/3h) -- -- -- --
09:00 0.7 0.7 -- OSO 3.7 3.7 5.6 -- 1025.5(2.3/3h) -- -- -- --
08:00 -1.0 -1.0 -1.7 SO 1.9 3.7 5.6 95 1024.8(2.1/3h) -- -- -- --
07:00 -1.4 -1.4 -2.2 OSO 1.9 1.9 3.7 94 1024(2.1/3h) -- -- -- --
06:00 -0.5 -0.5 -1.3 SO 1.9 3.7 5.6 94 1023.2(1.8/3h) -- -- 0.3/12h
--
05:00 -0.8 -0.8 -1.5 OSO 1.9 3.7 5.6 95 1022.7(1.6/3h) -- -- -- --
04:00 -1.0 -1.0 -1.7 OSO 3.7 3.7 5.6 95 1021.9(1.5/3h) -- -- -- --
03:00 -0.4 -0.4 -1.1 O 3.7 3.7 5.6 95 1021.4(1.5/3h) -- -- -- --
02:00 -0.3 -0.3 -1.1 O 3.7 3.7 5.6 94 1021.1(1.8/3h) -- -- -- --
01:00 0.1 0.1 -0.8 O 3.7 3.7 5.6 94 1020.4(1.9/3h) -- -- -- --
00:00 0.5 0.5 -0.4 O 3.7 9.3 13.0 94 1019.9(2.1/3h) -- -- 0.3/6h
--

1 Coordinated Universal Time. Actuellement il est 02:00 locale et 00:00 UTC.

2 Le vent souffle depuis la direction indiquée vers la direction oposée.

3 Les rafales max. sont disponible 40 min après l'heure du relevé.

4 Pour les stations d'altitude (plus de 600m) le géopotentiel du niveau le plus proche de la pression obligatoire est indiqué.

5 Les stations disposant d'un diffuseur peuvent indiquer "trace". Cela signifie que des précipitations ont touchés le sol mais que la quantité est inférieure à 0.1 mm.

Récapitulatif de la journée
Température [°C] Vent [km/h] Ensoleillement4 [h] Precipitations totale5 [mm] Pression [Hpa]
Min1 Max.2 Moy.3 Max. Min Max.
-1.2 7.5 5.4 13.0 0 h 0 min 0 1019.9 1026.1

1 Température minimale relevée entre 18:00 UTC la veille et 18:00 UTC le jour donné.

2 Température maximale relevée entre 06:00 UTC le jour donné et 06:00 UTC le lendemain.

3 Vent moyen de la journée basé sur les relevés horaires.

4 Ensoleillement en heures relevé entre 06:00 UTC la veille et 06:00 UTC le jour donné.

5 Précipitations totales tombées entre 06:00 UTC la jour donné et 06:00 UTC le lendemain.

Graphiques horaires